Time;durP1;ratioP1;P1;durP2;ratioP2;P2;SDS_P1;SDS_P2;PMS_P1;PMS_P2;Temp;Humidity;BMP_temperature;BMP_pressure;BME280_temperature;BME280_humidity;BME280_pressure;Samples;Min_cycle;Max_cycle;Signal;HPM_P1;HPM_P2
2022/01/13 00:00:23;;;;;;;22.95;13.15;;;;;;;;;;4960956;29;20055;-79
2022/01/13 00:02:49;;;;;;;23.45;13.02;;;;;;;;;;4944466;29;20040;-80
2022/01/13 00:05:18;;;;;;;22.13;12.63;;;;;;;;;;4957872;29;20046;-79
2022/01/13 00:07:44;;;;;;;20.23;12.40;;;;;;;;;;4950474;29;20028;-81
2022/01/13 00:10:10;;;;;;;23.50;13.77;;;;;;;;;;4950723;28;20039;-80
2022/01/13 00:12:41;;;;;;;26.08;14.15;;;;;;;;;;4965303;28;20079;-79
2022/01/13 00:15:37;;;;;;;28.00;14.35;;;;;;;;;;4951684;29;20059;-79
2022/01/13 00:18:09;;;;;;;24.15;14.80;;;;;;;;;;4934387;29;20024;-80
2022/01/13 00:21:14;;;;;;;20.60;11.27;;;;;;;;;;4961256;28;20035;-80
2022/01/13 00:26:15;;;;;;;23.98;12.85;;;;;;;;;;4949719;29;20089;-80
2022/01/13 00:28:44;;;;;;;25.15;13.48;;;;;;;;;;4958551;29;20043;-82
2022/01/13 00:31:10;;;;;;;27.55;15.13;;;;;;;;;;4951350;29;20046;-80
2022/01/13 00:33:38;;;;;;;28.50;15.55;;;;;;;;;;4952833;28;20035;-80
2022/01/13 00:36:04;;;;;;;28.33;13.82;;;;;;;;;;5027470;28;20428;-79
2022/01/13 00:38:31;;;;;;;25.13;15.10;;;;;;;;;;5017572;28;20110;-81
2022/01/13 00:40:57;;;;;;;24.83;13.40;;;;;;;;;;5032898;28;20030;-80
2022/01/13 00:43:24;;;;;;;26.65;14.00;;;;;;;;;;5025711;28;20097;-79
2022/01/13 00:45:50;;;;;;;27.85;14.10;;;;;;;;;;5010892;28;20038;-79
2022/01/13 00:48:17;;;;;;;25.65;13.52;;;;;;;;;;5013896;28;20030;-80
2022/01/13 00:50:43;;;;;;;28.52;14.60;;;;;;;;;;5026071;28;20029;-79
2022/01/13 00:53:10;;;;;;;28.73;13.98;;;;;;;;;;5026834;28;20179;-79
2022/01/13 00:55:58;;;;;;;24.42;14.07;;;;;;;;;;5028792;28;20050;-79
2022/01/13 00:58:26;;;;;;;22.30;12.90;;;;;;;;;;5028589;28;20050;-80
2022/01/13 01:00:53;;;;;;;26.38;13.18;;;;;;;;;;5027389;28;20076;-79
2022/01/13 01:03:19;;;;;;;23.83;12.90;;;;;;;;;;5030500;28;20037;-80
2022/01/13 01:05:46;;;;;;;23.00;12.38;;;;;;;;;;5030711;28;20026;-80
2022/01/13 01:08:12;;;;;;;27.88;13.85;;;;;;;;;;5030802;28;20060;-80
2022/01/13 01:10:38;;;;;;;25.20;14.38;;;;;;;;;;5028240;28;20086;-80
2022/01/13 01:13:14;;;;;;;29.83;13.63;;;;;;;;;;5029954;28;20014;-80
2022/01/13 01:15:44;;;;;;;28.60;14.30;;;;;;;;;;5027928;28;20026;-80
2022/01/13 01:18:36;;;;;;;30.08;14.73;;;;;;;;;;5027436;28;20496;-79
2022/01/13 01:24:10;;;;;;;27.35;15.02;;;;;;;;;;5027029;28;20042;-79
2022/01/13 01:26:40;;;;;;;26.52;15.77;;;;;;;;;;5025158;28;20040;-80
2022/01/13 01:29:17;;;;;;;27.77;13.85;;;;;;;;;;5027230;28;20088;-80
2022/01/13 01:31:50;;;;;;;24.58;14.70;;;;;;;;;;5013798;28;20029;-79
2022/01/13 01:37:02;;;;;;;23.80;12.45;;;;;;;;;;5027694;28;20079;-78
2022/01/13 01:39:28;;;;;;;29.30;16.10;;;;;;;;;;5026054;28;20033;-80
2022/01/13 01:41:54;;;;;;;26.83;15.35;;;;;;;;;;5025499;28;20030;-79
2022/01/13 01:44:29;;;;;;;29.63;15.40;;;;;;;;;;5026959;28;20026;-80
2022/01/13 01:46:58;;;;;;;28.17;14.88;;;;;;;;;;5026810;28;20041;-79
2022/01/13 01:49:25;;;;;;;33.28;17.65;;;;;;;;;;5025808;28;20029;-78
2022/01/13 01:51:53;;;;;;;30.23;15.82;;;;;;;;;;5026719;28;20053;-79
2022/01/13 01:54:20;;;;;;;26.90;14.90;;;;;;;;;;5025367;28;20476;-80
2022/01/13 01:56:46;;;;;;;25.13;14.40;;;;;;;;;;5025509;28;20072;-80
2022/01/13 01:59:15;;;;;;;25.25;15.07;;;;;;;;;;5024420;28;20025;-79
2022/01/13 02:01:42;;;;;;;26.13;15.48;;;;;;;;;;5022839;28;20022;-78
2022/01/13 02:04:08;;;;;;;26.90;15.20;;;;;;;;;;5024099;28;20034;-79
2022/01/13 02:06:37;;;;;;;28.77;14.77;;;;;;;;;;5015585;28;20041;-79
2022/01/13 02:09:07;;;;;;;30.80;15.30;;;;;;;;;;5015851;28;20030;-78
2022/01/13 02:11:43;;;;;;;30.33;17.60;;;;;;;;;;5027514;28;20108;-80
2022/01/13 02:14:31;;;;;;;25.42;14.38;;;;;;;;;;5026493;28;20089;-79
2022/01/13 02:16:56;;;;;;;26.70;15.23;;;;;;;;;;5025201;28;20056;-80
2022/01/13 02:19:24;;;;;;;27.73;15.38;;;;;;;;;;5024533;28;20025;-80
2022/01/13 02:21:51;;;;;;;27.70;15.85;;;;;;;;;;5024343;28;20077;-79
2022/01/13 02:24:17;;;;;;;28.30;14.98;;;;;;;;;;5024587;28;20037;-79
2022/01/13 02:26:44;;;;;;;25.67;14.02;;;;;;;;;;5022471;28;20029;-81
2022/01/13 02:29:10;;;;;;;26.10;15.25;;;;;;;;;;5021562;28;20030;-80
2022/01/13 02:31:36;;;;;;;26.88;15.13;;;;;;;;;;5024893;28;20082;-78
2022/01/13 02:34:02;;;;;;;29.45;16.98;;;;;;;;;;5024360;28;20276;-78
2022/01/13 02:36:30;;;;;;;24.95;16.27;;;;;;;;;;5024941;28;20022;-79
2022/01/13 02:38:57;;;;;;;28.25;16.30;;;;;;;;;;5023230;28;20045;-79
2022/01/13 02:41:24;;;;;;;30.27;16.50;;;;;;;;;;5024794;28;20042;-79
2022/01/13 02:43:53;;;;;;;27.98;15.48;;;;;;;;;;5022682;28;20061;-79
2022/01/13 02:46:55;;;;;;;30.13;16.55;;;;;;;;;;5023585;28;20079;-79
2022/01/13 02:49:23;;;;;;;26.73;16.52;;;;;;;;;;5019758;28;20037;-79
2022/01/13 02:51:50;;;;;;;28.73;15.35;;;;;;;;;;5004733;28;20370;-79
2022/01/13 02:54:16;;;;;;;29.98;15.05;;;;;;;;;;5017204;28;20021;-79
2022/01/13 02:56:44;;;;;;;30.75;17.23;;;;;;;;;;5022559;28;20486;-79
2022/01/13 02:59:11;;;;;;;29.23;15.82;;;;;;;;;;5023092;28;20040;-79
2022/01/13 03:01:37;;;;;;;29.65;15.48;;;;;;;;;;5024341;28;20065;-79
2022/01/13 03:04:07;;;;;;;30.52;17.33;;;;;;;;;;5024307;28;20388;-80
2022/01/13 03:06:39;;;;;;;26.42;16.00;;;;;;;;;;5023933;28;20018;-79
2022/01/13 03:09:07;;;;;;;28.58;14.10;;;;;;;;;;5021775;28;20511;-79
2022/01/13 03:11:36;;;;;;;25.73;13.98;;;;;;;;;;5022408;28;20037;-80
2022/01/13 03:14:04;;;;;;;29.25;15.23;;;;;;;;;;5023667;28;20049;-79
2022/01/13 03:16:30;;;;;;;29.77;14.93;;;;;;;;;;5023056;28;20388;-78
2022/01/13 03:18:57;;;;;;;27.23;13.77;;;;;;;;;;5020749;28;20021;-79
2022/01/13 03:21:23;;;;;;;28.25;14.88;;;;;;;;;;5023225;28;20022;-79
2022/01/13 03:23:50;;;;;;;31.20;16.13;;;;;;;;;;5019283;28;20022;-79
2022/01/13 03:26:17;;;;;;;29.27;17.08;;;;;;;;;;5005563;28;20072;-78
2022/01/13 03:29:05;;;;;;;27.58;16.23;;;;;;;;;;5022992;28;20057;-79
2022/01/13 03:31:31;;;;;;;30.27;15.38;;;;;;;;;;5025276;28;20030;-81
2022/01/13 03:33:57;;;;;;;25.17;14.98;;;;;;;;;;5023445;28;20022;-80
2022/01/13 03:36:23;;;;;;;29.77;15.38;;;;;;;;;;5024451;28;20026;-79
2022/01/13 03:38:49;;;;;;;27.55;15.52;;;;;;;;;;5022433;28;20014;-80
2022/01/13 03:41:19;;;;;;;26.92;13.68;;;;;;;;;;5022428;28;20026;-80
2022/01/13 03:43:46;;;;;;;25.30;13.88;;;;;;;;;;5022294;28;20046;-78
2022/01/13 03:46:14;;;;;;;28.08;14.55;;;;;;;;;;5023795;28;20104;-79
2022/01/13 03:48:41;;;;;;;30.77;15.70;;;;;;;;;;5021913;28;20032;-78
2022/01/13 03:51:07;;;;;;;23.17;13.88;;;;;;;;;;5003028;28;20092;-79
2022/01/13 03:53:33;;;;;;;30.17;15.57;;;;;;;;;;5001738;28;20030;-79
2022/01/13 03:55:59;;;;;;;26.88;14.88;;;;;;;;;;5020427;28;20038;-79
2022/01/13 03:58:40;;;;;;;26.10;14.35;;;;;;;;;;5021880;28;20022;-79
2022/01/13 04:01:25;;;;;;;24.23;13.98;;;;;;;;;;5021145;28;20350;-80
2022/01/13 04:03:51;;;;;;;27.50;14.43;;;;;;;;;;5024270;28;20049;-80
2022/01/13 04:06:17;;;;;;;27.48;14.10;;;;;;;;;;5024201;28;20029;-80
2022/01/13 04:08:49;;;;;;;28.35;14.90;;;;;;;;;;5023194;28;20056;-80
2022/01/13 04:11:26;;;;;;;24.33;14.70;;;;;;;;;;5027982;28;20034;-79
2022/01/13 04:14:00;;;;;;;29.20;16.30;;;;;;;;;;5022919;28;20120;-80
2022/01/13 04:16:28;;;;;;;28.45;15.48;;;;;;;;;;5023630;28;20085;-79
2022/01/13 04:18:58;;;;;;;27.83;16.65;;;;;;;;;;5023501;28;20026;-80
2022/01/13 04:21:24;;;;;;;25.08;14.95;;;;;;;;;;5016929;28;20030;-79
2022/01/13 04:23:53;;;;;;;24.58;14.70;;;;;;;;;;5019970;28;20022;-79
2022/01/13 04:26:27;;;;;;;26.70;15.52;;;;;;;;;;5022982;28;20116;-79
2022/01/13 04:29:01;;;;;;;31.42;15.02;;;;;;;;;;5020708;28;20029;-80
2022/01/13 04:31:28;;;;;;;26.55;16.15;;;;;;;;;;5017143;28;20041;-79
2022/01/13 04:33:54;;;;;;;28.38;15.63;;;;;;;;;;5021873;28;20125;-79
2022/01/13 04:36:20;;;;;;;27.58;17.13;;;;;;;;;;5025156;28;20439;-78
2022/01/13 04:38:46;;;;;;;30.02;17.98;;;;;;;;;;5022272;28;20092;-80
2022/01/13 04:41:15;;;;;;;27.92;15.77;;;;;;;;;;5024737;28;20034;-80
2022/01/13 04:43:43;;;;;;;29.88;15.90;;;;;;;;;;5027949;28;20030;-79
2022/01/13 04:46:09;;;;;;;26.83;14.43;;;;;;;;;;5034126;28;20136;-80
2022/01/13 04:48:35;;;;;;;29.95;16.00;;;;;;;;;;5026480;28;20026;-79
2022/01/13 04:51:01;;;;;;;30.90;16.42;;;;;;;;;;5025927;28;20026;-79
2022/01/13 04:53:27;;;;;;;29.13;15.90;;;;;;;;;;5044039;28;20034;-80
2022/01/13 04:55:58;;;;;;;28.92;15.57;;;;;;;;;;5028145;28;20041;-81
2022/01/13 04:58:24;;;;;;;27.40;15.60;;;;;;;;;;5025595;28;20064;-80
2022/01/13 05:00:50;;;;;;;28.00;15.05;;;;;;;;;;5025321;28;20044;-78
2022/01/13 05:03:17;;;;;;;29.25;15.88;;;;;;;;;;5024901;28;20045;-80
2022/01/13 05:05:43;;;;;;;31.67;16.17;;;;;;;;;;5024625;28;20038;-80
2022/01/13 05:08:09;;;;;;;31.15;18.55;;;;;;;;;;5023710;28;20056;-79
2022/01/13 05:10:35;;;;;;;29.00;15.57;;;;;;;;;;5025348;28;20037;-80
2022/01/13 05:13:03;;;;;;;29.27;15.27;;;;;;;;;;5032377;28;20017;-80
2022/01/13 05:15:31;;;;;;;29.00;15.65;;;;;;;;;;5035521;28;20077;-79
2022/01/13 05:18:39;;;;;;;28.67;16.38;;;;;;;;;;5024860;28;20026;-79
2022/01/13 05:21:37;;;;;;;25.83;13.98;;;;;;;;;;5025279;28;20037;-80
2022/01/13 05:23:44;;;;;;;26.92;14.80;;;;;;;;;;5023374;28;20048;-79
2022/01/13 05:26:10;;;;;;;27.98;15.95;;;;;;;;;;5024526;28;20026;-80
2022/01/13 05:28:38;;;;;;;27.38;16.25;;;;;;;;;;5022423;28;20112;-79
2022/01/13 05:31:04;;;;;;;33.47;15.93;;;;;;;;;;5021970;28;20030;-78
2022/01/13 05:33:30;;;;;;;31.38;15.18;;;;;;;;;;5024605;28;20022;-79
2022/01/13 05:35:57;;;;;;;30.08;16.70;;;;;;;;;;5025178;28;20034;-78
2022/01/13 05:38:23;;;;;;;32.28;17.48;;;;;;;;;;5022184;28;20023;-79
2022/01/13 05:40:49;;;;;;;32.17;16.63;;;;;;;;;;5022761;28;20029;-79
2022/01/13 05:43:15;;;;;;;30.48;17.77;;;;;;;;;;5026544;28;20030;-79
2022/01/13 05:45:41;;;;;;;30.23;16.38;;;;;;;;;;5026858;28;20127;-79
2022/01/13 05:48:07;;;;;;;28.48;15.63;;;;;;;;;;5037911;28;20060;-79
2022/01/13 05:50:34;;;;;;;28.98;15.02;;;;;;;;;;5029577;28;20096;-79
2022/01/13 05:53:00;;;;;;;30.77;16.40;;;;;;;;;;5027850;28;20052;-80
2022/01/13 05:55:26;;;;;;;31.08;15.90;;;;;;;;;;5025536;28;20080;-79
2022/01/13 05:57:52;;;;;;;30.25;16.27;;;;;;;;;;5025804;28;20113;-79
2022/01/13 06:00:19;;;;;;;32.70;16.77;;;;;;;;;;5032139;28;20030;-79
2022/01/13 06:02:46;;;;;;;33.13;17.45;;;;;;;;;;5024486;28;20029;-80
2022/01/13 06:05:15;;;;;;;32.90;17.02;;;;;;;;;;5021056;28;20048;-79
2022/01/13 06:07:41;;;;;;;30.95;16.98;;;;;;;;;;5024331;28;20432;-79
2022/01/13 06:10:09;;;;;;;30.48;17.35;;;;;;;;;;5025180;28;20021;-79
2022/01/13 06:12:38;;;;;;;36.17;17.88;;;;;;;;;;5026486;28;20092;-79
2022/01/13 06:15:05;;;;;;;33.63;17.90;;;;;;;;;;5023191;28;20014;-80
2022/01/13 06:17:31;;;;;;;31.25;17.05;;;;;;;;;;5022302;28;20026;-80
2022/01/13 06:19:59;;;;;;;32.35;16.20;;;;;;;;;;5023704;28;20034;-80
2022/01/13 06:22:25;;;;;;;30.38;16.42;;;;;;;;;;5023061;28;20022;-79
2022/01/13 06:24:55;;;;;;;29.10;15.77;;;;;;;;;;5023856;28;20079;-79
2022/01/13 06:27:22;;;;;;;32.83;16.00;;;;;;;;;;5024988;28;20041;-79
2022/01/13 06:29:49;;;;;;;32.88;17.55;;;;;;;;;;5031353;28;20033;-78
2022/01/13 06:32:15;;;;;;;33.85;17.27;;;;;;;;;;5021411;28;20021;-79
2022/01/13 06:34:41;;;;;;;34.65;17.65;;;;;;;;;;5023560;28;20036;-80
2022/01/13 06:37:07;;;;;;;35.63;17.23;;;;;;;;;;5021334;28;20025;-79
2022/01/13 06:39:33;;;;;;;27.63;16.00;;;;;;;;;;5016598;28;20026;-80
2022/01/13 06:41:59;;;;;;;36.65;19.63;;;;;;;;;;5041792;28;20029;-80
2022/01/13 06:44:25;;;;;;;33.90;17.85;;;;;;;;;;5027637;28;20092;-79
2022/01/13 06:46:52;;;;;;;33.70;18.33;;;;;;;;;;5030433;28;20068;-79
2022/01/13 06:49:18;;;;;;;34.22;17.83;;;;;;;;;;5029654;28;20040;-81
2022/01/13 06:51:44;;;;;;;32.30;17.38;;;;;;;;;;5010685;28;20037;-80
2022/01/13 06:54:10;;;;;;;32.35;17.27;;;;;;;;;;5021943;28;20160;-80
2022/01/13 06:56:36;;;;;;;30.35;16.33;;;;;;;;;;5022892;28;20042;-80
2022/01/13 06:59:08;;;;;;;30.77;16.30;;;;;;;;;;5043159;28;20036;-80
2022/01/13 07:01:34;;;;;;;39.88;17.15;;;;;;;;;;5023587;28;20045;-80
2022/01/13 07:04:00;;;;;;;33.50;18.17;;;;;;;;;;5021660;28;20037;-80
2022/01/13 07:06:27;;;;;;;35.28;19.10;;;;;;;;;;5022200;28;20041;-81
2022/01/13 07:08:53;;;;;;;35.13;19.42;;;;;;;;;;5003932;28;20508;-80
2022/01/13 07:11:19;;;;;;;38.05;19.30;;;;;;;;;;5020841;28;20036;-80
2022/01/13 07:13:45;;;;;;;37.40;18.95;;;;;;;;;;5022827;28;20053;-81
2022/01/13 07:16:11;;;;;;;36.60;17.05;;;;;;;;;;5023263;28;20033;-80
2022/01/13 07:18:40;;;;;;;35.75;18.63;;;;;;;;;;5021144;28;20098;-79
2022/01/13 07:21:11;;;;;;;31.98;16.48;;;;;;;;;;5020715;28;20036;-79
2022/01/13 07:23:37;;;;;;;35.58;19.33;;;;;;;;;;5024135;28;20025;-80
2022/01/13 07:26:04;;;;;;;34.47;18.67;;;;;;;;;;5026330;28;20033;-79
2022/01/13 07:28:30;;;;;;;35.67;19.05;;;;;;;;;;5024952;28;20336;-80
2022/01/13 07:30:57;;;;;;;32.80;17.30;;;;;;;;;;5024119;28;20026;-79
2022/01/13 07:33:25;;;;;;;38.47;18.23;;;;;;;;;;5022414;28;20030;-79
2022/01/13 07:35:51;;;;;;;32.63;17.55;;;;;;;;;;5020999;28;20052;-80
2022/01/13 07:38:18;;;;;;;36.17;18.75;;;;;;;;;;5022992;28;20057;-80
2022/01/13 07:40:45;;;;;;;39.28;18.02;;;;;;;;;;5022941;28;20030;-80
2022/01/13 07:43:11;;;;;;;31.80;17.70;;;;;;;;;;5022324;28;20034;-80
2022/01/13 07:45:37;;;;;;;32.75;17.92;;;;;;;;;;5020204;28;20026;-80
2022/01/13 07:48:03;;;;;;;36.92;18.63;;;;;;;;;;5019867;28;20034;-78
2022/01/13 07:50:29;;;;;;;36.33;20.25;;;;;;;;;;5020492;28;20034;-79
2022/01/13 07:52:55;;;;;;;36.25;20.60;;;;;;;;;;5019777;28;20022;-80
2022/01/13 07:55:21;;;;;;;39.22;19.00;;;;;;;;;;5022134;28;20262;-79
2022/01/13 07:57:47;;;;;;;37.72;19.65;;;;;;;;;;5021307;28;20033;-79
2022/01/13 08:00:15;;;;;;;38.22;17.77;;;;;;;;;;5010185;28;20459;-79
2022/01/13 08:02:42;;;;;;;37.70;18.25;;;;;;;;;;5001713;28;20029;-80
2022/01/13 08:05:08;;;;;;;38.50;17.75;;;;;;;;;;5020743;28;20029;-79
2022/01/13 08:07:34;;;;;;;34.92;17.67;;;;;;;;;;5022355;28;20030;-79
2022/01/13 08:10:00;;;;;;;34.75;18.25;;;;;;;;;;5021398;28;20030;-80
2022/01/13 08:12:27;;;;;;;47.33;17.40;;;;;;;;;;5022677;28;20049;-81
2022/01/13 08:14:53;;;;;;;34.38;18.02;;;;;;;;;;5024555;28;20018;-80
2022/01/13 08:20:05;;;;;;;28.75;15.27;;;;;;;;;;5014816;28;20053;-79
2022/01/13 08:22:31;;;;;;;28.02;15.52;;;;;;;;;;5025685;28;20045;-79
2022/01/13 08:24:57;;;;;;;33.33;15.43;;;;;;;;;;5022540;28;20026;-79
2022/01/13 08:27:23;;;;;;;36.35;17.88;;;;;;;;;;5023813;28;20061;-81
2022/01/13 08:29:49;;;;;;;34.70;15.82;;;;;;;;;;5023827;28;20036;-80
2022/01/13 08:32:16;;;;;;;35.35;19.42;;;;;;;;;;5022866;28;20026;-79
2022/01/13 08:34:42;;;;;;;34.72;17.85;;;;;;;;;;5012374;28;20057;-79
2022/01/13 08:37:08;;;;;;;31.02;16.08;;;;;;;;;;5022388;28;20022;-80
2022/01/13 08:39:40;;;;;;;38.03;17.42;;;;;;;;;;5021187;28;20026;-79
2022/01/13 08:42:06;;;;;;;31.17;16.27;;;;;;;;;;5022055;28;20017;-78
2022/01/13 08:44:32;;;;;;;44.50;18.85;;;;;;;;;;5021313;28;20026;-79
2022/01/13 08:46:58;;;;;;;33.08;16.90;;;;;;;;;;5022232;28;20041;-79
2022/01/13 08:49:24;;;;;;;30.38;16.00;;;;;;;;;;5023156;28;20034;-80
2022/01/13 08:51:51;;;;;;;34.80;18.55;;;;;;;;;;5021927;28;20026;-79
2022/01/13 08:54:21;;;;;;;28.50;16.00;;;;;;;;;;5020746;28;20574;-79
2022/01/13 08:56:47;;;;;;;36.35;17.02;;;;;;;;;;5023156;28;20042;-80
2022/01/13 08:59:13;;;;;;;33.70;15.35;;;;;;;;;;5021147;28;20021;-79
2022/01/13 09:01:39;;;;;;;30.58;15.25;;;;;;;;;;5023517;28;20025;-80
2022/01/13 09:04:05;;;;;;;28.45;14.68;;;;;;;;;;5020845;28;20114;-79
2022/01/13 09:06:31;;;;;;;33.53;17.73;;;;;;;;;;5022864;28;20069;-80
2022/01/13 09:08:57;;;;;;;32.13;17.17;;;;;;;;;;5022977;28;20030;-79
2022/01/13 09:11:23;;;;;;;31.02;15.60;;;;;;;;;;5023282;28;20026;-78
2022/01/13 09:13:56;;;;;;;30.17;15.63;;;;;;;;;;5023720;28;20076;-78
2022/01/13 09:16:24;;;;;;;46.05;18.60;;;;;;;;;;5021162;28;20025;-79
2022/01/13 09:21:23;;;;;;;29.08;15.73;;;;;;;;;;5022037;28;20122;-79
2022/01/13 09:23:49;;;;;;;31.30;18.52;;;;;;;;;;5023717;28;20034;-79
2022/01/13 09:26:17;;;;;;;34.35;16.55;;;;;;;;;;5021188;28;20112;-78
2022/01/13 09:28:43;;;;;;;34.90;19.83;;;;;;;;;;5022914;28;20486;-79
2022/01/13 09:31:10;;;;;;;26.77;14.32;;;;;;;;;;5021714;28;20029;-80
2022/01/13 09:33:36;;;;;;;38.13;17.23;;;;;;;;;;5023819;28;20065;-80
2022/01/13 09:36:03;;;;;;;29.27;14.38;;;;;;;;;;5021033;28;20054;-79
2022/01/13 09:38:29;;;;;;;29.30;15.45;;;;;;;;;;5021548;28;20034;-79
2022/01/13 09:40:56;;;;;;;26.10;14.75;;;;;;;;;;5017363;28;20041;-79
2022/01/13 09:43:23;;;;;;;26.48;14.48;;;;;;;;;;5022776;28;20053;-78
2022/01/13 09:45:49;;;;;;;39.90;17.30;;;;;;;;;;5024148;28;20034;-78
2022/01/13 09:48:15;;;;;;;35.90;16.20;;;;;;;;;;5026283;28;20030;-80
2022/01/13 09:50:43;;;;;;;30.35;15.20;;;;;;;;;;5022179;28;20502;-80
2022/01/13 09:53:09;;;;;;;26.13;14.93;;;;;;;;;;5022801;28;20022;-79
2022/01/13 09:55:36;;;;;;;34.00;16.38;;;;;;;;;;5022043;28;20046;-79
2022/01/13 09:58:05;;;;;;;25.33;16.02;;;;;;;;;;5020727;28;20032;-80
2022/01/13 10:00:31;;;;;;;27.33;14.88;;;;;;;;;;5021787;28;20109;-78
2022/01/13 10:02:59;;;;;;;27.80;14.90;;;;;;;;;;5021800;28;20026;-79
2022/01/13 10:05:25;;;;;;;29.42;15.65;;;;;;;;;;5014903;28;20026;-80
2022/01/13 10:07:52;;;;;;;28.38;15.25;;;;;;;;;;5006635;28;20064;-79
2022/01/13 10:10:20;;;;;;;25.98;14.00;;;;;;;;;;5018827;28;20033;-79
2022/01/13 10:12:49;;;;;;;24.02;14.52;;;;;;;;;;5020044;28;20029;-78
2022/01/13 10:18:06;;;;;;;25.33;14.38;;;;;;;;;;5021784;28;20508;-79
2022/01/13 10:20:33;;;;;;;24.10;12.60;;;;;;;;;;5020621;28;20030;-79
2022/01/13 10:23:09;;;;;;;23.23;11.90;;;;;;;;;;5022449;28;20528;-80
2022/01/13 10:25:45;;;;;;;31.63;15.00;;;;;;;;;;5019179;28;20049;-79
2022/01/13 10:28:14;;;;;;;26.80;14.80;;;;;;;;;;5019466;28;20033;-80
2022/01/13 10:30:41;;;;;;;31.05;15.50;;;;;;;;;;5020211;28;20040;-78
2022/01/13 10:33:16;;;;;;;28.55;15.23;;;;;;;;;;5020953;28;20021;-79
2022/01/13 10:35:42;;;;;;;24.60;13.20;;;;;;;;;;5021583;28;20076;-80
2022/01/13 10:38:08;;;;;;;25.90;14.00;;;;;;;;;;5020518;28;20030;-79
2022/01/13 10:40:40;;;;;;;26.00;14.43;;;;;;;;;;5020561;28;20034;-80
2022/01/13 10:43:07;;;;;;;27.92;15.50;;;;;;;;;;5022151;28;20026;-80
2022/01/13 10:45:33;;;;;;;26.42;14.07;;;;;;;;;;5019206;28;20109;-79
2022/01/13 10:48:02;;;;;;;25.50;14.48;;;;;;;;;;5020629;28;20033;-80
2022/01/13 10:50:31;;;;;;;24.65;15.13;;;;;;;;;;5022031;28;20109;-79
2022/01/13 10:53:02;;;;;;;26.60;14.57;;;;;;;;;;5021116;28;20042;-79
2022/01/13 10:55:29;;;;;;;25.33;14.68;;;;;;;;;;5021318;28;20508;-79
2022/01/13 10:57:55;;;;;;;27.27;13.68;;;;;;;;;;5018672;28;20022;-79
2022/01/13 11:00:23;;;;;;;24.35;13.40;;;;;;;;;;5020820;28;20033;-79
2022/01/13 11:02:59;;;;;;;28.25;15.05;;;;;;;;;;5021171;28;20021;-79
2022/01/13 11:05:28;;;;;;;25.67;13.00;;;;;;;;;;5018233;28;20037;-80
2022/01/13 11:07:56;;;;;;;23.02;12.73;;;;;;;;;;5019685;28;20026;-79
2022/01/13 11:10:22;;;;;;;21.63;12.98;;;;;;;;;;5020003;28;20018;-78
2022/01/13 11:12:56;;;;;;;23.13;13.18;;;;;;;;;;5018936;28;20022;-79
2022/01/13 11:15:23;;;;;;;30.30;15.30;;;;;;;;;;5019230;28;20022;-80
2022/01/13 11:17:50;;;;;;;25.88;14.20;;;;;;;;;;5016819;28;20033;-79
2022/01/13 11:20:20;;;;;;;23.75;13.52;;;;;;;;;;5019950;28;20021;-79
2022/01/13 11:22:47;;;;;;;19.63;12.15;;;;;;;;;;5019828;28;20085;-79
2022/01/13 11:25:15;;;;;;;24.77;13.23;;;;;;;;;;5013875;28;20036;-80
2022/01/13 11:27:42;;;;;;;23.73;13.18;;;;;;;;;;5004546;28;20030;-79
2022/01/13 11:30:10;;;;;;;22.13;12.13;;;;;;;;;;5019384;28;20225;-80
2022/01/13 11:32:36;;;;;;;20.48;12.70;;;;;;;;;;5019793;28;20030;-80
2022/01/13 11:35:03;;;;;;;21.27;12.43;;;;;;;;;;5020465;28;20481;-78
2022/01/13 11:37:30;;;;;;;21.45;11.95;;;;;;;;;;5018488;28;20030;-80
2022/01/13 11:39:57;;;;;;;23.95;12.82;;;;;;;;;;5019524;28;20018;-79
2022/01/13 11:42:24;;;;;;;22.50;11.82;;;;;;;;;;5019438;28;20029;-81
2022/01/13 11:45:26;;;;;;;23.15;12.52;;;;;;;;;;5023546;28;20041;-79
2022/01/13 11:48:10;;;;;;;23.08;13.10;;;;;;;;;;4981208;28;20066;-81
2022/01/13 11:50:44;;;;;;;23.08;13.85;;;;;;;;;;4973619;28;20039;-80
2022/01/13 11:53:22;;;;;;;22.30;11.82;;;;;;;;;;4967256;28;20042;-80
2022/01/13 11:56:11;;;;;;;18.75;11.40;;;;;;;;;;4966554;28;20605;-80
2022/01/13 11:58:42;;;;;;;18.85;10.82;;;;;;;;;;4964111;28;20070;-80
2022/01/13 12:01:27;;;;;;;20.20;11.55;;;;;;;;;;4986397;28;20031;-81
2022/01/13 12:03:58;;;;;;;22.30;10.40;;;;;;;;;;4979532;28;20035;-79
2022/01/13 12:06:33;;;;;;;18.52;10.68;;;;;;;;;;4973650;28;20541;-80
2022/01/13 12:08:59;;;;;;;19.20;9.60;;;;;;;;;;4960291;28;20027;-79
2022/01/13 12:11:37;;;;;;;17.05;9.60;;;;;;;;;;4985099;28;20043;-80
2022/01/13 12:14:03;;;;;;;19.02;10.57;;;;;;;;;;4982297;28;20081;-77
2022/01/13 12:16:47;;;;;;;19.40;9.10;;;;;;;;;;4975155;28;20606;-81
2022/01/13 12:19:26;;;;;;;20.45;10.98;;;;;;;;;;4968751;28;20158;-80
2022/01/13 12:22:02;;;;;;;17.92;9.88;;;;;;;;;;4993398;28;20044;-78
2022/01/13 12:24:48;;;;;;;17.63;10.43;;;;;;;;;;5008226;28;20057;-79
2022/01/13 12:27:16;;;;;;;17.52;8.70;;;;;;;;;;5024120;28;20455;-79
2022/01/13 12:29:49;;;;;;;19.88;11.25;;;;;;;;;;5017337;28;20053;-79
2022/01/13 12:32:18;;;;;;;18.65;9.77;;;;;;;;;;5024427;28;20084;-79
2022/01/13 12:34:48;;;;;;;17.95;9.75;;;;;;;;;;5022072;28;20025;-79
2022/01/13 12:37:17;;;;;;;16.35;8.70;;;;;;;;;;5023772;28;20064;-78
2022/01/13 12:39:48;;;;;;;18.13;8.98;;;;;;;;;;5025900;28;20033;-77
2022/01/13 12:42:16;;;;;;;15.98;9.38;;;;;;;;;;5023105;28;20113;-78
2022/01/13 12:45:43;;;;;;;16.75;8.82;;;;;;;;;;5022780;28;20045;-78
2022/01/13 12:47:38;;;;;;;16.95;8.65;;;;;;;;;;5011229;28;20045;-79
2022/01/13 12:50:23;;;;;;;16.60;7.70;;;;;;;;;;5024382;28;20022;-79
2022/01/13 12:52:49;;;;;;;15.40;9.07;;;;;;;;;;5021378;28;20026;-79
2022/01/13 12:55:16;;;;;;;16.92;8.75;;;;;;;;;;5021167;28;20350;-79
2022/01/13 12:57:48;;;;;;;16.35;7.95;;;;;;;;;;5022928;28;20536;-79
2022/01/13 13:00:17;;;;;;;17.90;8.65;;;;;;;;;;5012662;28;20023;-79
2022/01/13 13:02:50;;;;;;;15.43;9.18;;;;;;;;;;5023801;28;20538;-80
2022/01/13 13:05:33;;;;;;;17.70;9.85;;;;;;;;;;5006052;28;20033;-78
2022/01/13 13:07:59;;;;;;;;;;;;;;;;;;5018326;28;20037;-79
2022/01/13 13:10:25;;;;;;;18.08;9.75;;;;;;;;;;5020300;28;19909;-79
2022/01/13 13:12:54;;;;;;;18.83;9.20;;;;;;;;;;5038354;28;20033;-79
2022/01/13 13:17:51;;;;;;;17.52;8.43;;;;;;;;;;5022156;28;20026;-78
2022/01/13 13:20:28;;;;;;;19.15;9.15;;;;;;;;;;5018832;28;20060;-78
2022/01/13 13:22:56;;;;;;;17.63;8.07;;;;;;;;;;5016840;28;20096;-80
2022/01/13 13:25:26;;;;;;;14.95;7.95;;;;;;;;;;5008819;28;20104;-80
2022/01/13 13:27:52;;;;;;;15.63;7.57;;;;;;;;;;5022766;28;20111;-79
2022/01/13 13:30:18;;;;;;;16.85;7.93;;;;;;;;;;5016886;28;20029;-79
2022/01/13 13:32:48;;;;;;;16.80;8.90;;;;;;;;;;5011584;28;20050;-81
2022/01/13 13:35:14;;;;;;;14.82;7.90;;;;;;;;;;5021121;28;20022;-78
2022/01/13 13:37:44;;;;;;;16.10;8.40;;;;;;;;;;5007412;28;20037;-80
2022/01/13 13:40:20;;;;;;;14.57;8.18;;;;;;;;;;5013981;28;20070;-79
2022/01/13 13:42:58;;;;;;;19.42;8.63;;;;;;;;;;5021572;28;20037;-78
2022/01/13 13:45:24;;;;;;;14.95;8.32;;;;;;;;;;5021322;28;20017;-79
2022/01/13 13:47:54;;;;;;;14.70;8.52;;;;;;;;;;5017675;28;20025;-79
2022/01/13 13:50:20;;;;;;;17.35;9.18;;;;;;;;;;5014327;28;20030;-78
2022/01/13 13:52:46;;;;;;;16.15;8.45;;;;;;;;;;5035978;28;20104;-79
2022/01/13 13:55:13;;;;;;;15.63;7.80;;;;;;;;;;5019151;28;20396;-79
2022/01/13 13:57:39;;;;;;;15.63;8.07;;;;;;;;;;5018084;28;20061;-78
2022/01/13 14:00:09;;;;;;;18.13;10.45;;;;;;;;;;5020264;28;20026;-79
2022/01/13 14:02:37;;;;;;;18.63;9.55;;;;;;;;;;5020176;28;20026;-78
2022/01/13 14:05:07;;;;;;;16.27;8.93;;;;;;;;;;5020379;28;20033;-79
2022/01/13 14:07:44;;;;;;;17.05;8.57;;;;;;;;;;5023030;28;20026;-79
2022/01/13 14:10:17;;;;;;;15.60;8.40;;;;;;;;;;5021853;28;20026;-80
2022/01/13 14:12:53;;;;;;;16.23;8.40;;;;;;;;;;5021867;28;20042;-80
2022/01/13 14:15:33;;;;;;;17.45;8.68;;;;;;;;;;5021101;28;20017;-79
2022/01/13 14:18:14;;;;;;;14.52;8.57;;;;;;;;;;5021732;28;20052;-79
2022/01/13 14:21:01;;;;;;;15.15;8.05;;;;;;;;;;5016258;28;20060;-79
2022/01/13 14:23:27;;;;;;;17.67;9.05;;;;;;;;;;5020235;28;20064;-79
2022/01/13 14:26:00;;;;;;;17.05;8.88;;;;;;;;;;5019751;28;20026;-78
2022/01/13 14:28:29;;;;;;;14.15;8.05;;;;;;;;;;5020290;28;20028;-79
2022/01/13 14:31:06;;;;;;;15.27;8.35;;;;;;;;;;5015419;28;20021;-78
2022/01/13 14:33:36;;;;;;;15.35;7.60;;;;;;;;;;5020709;28;20045;-79
2022/01/13 14:36:04;;;;;;;17.27;8.60;;;;;;;;;;5020058;28;20021;-78
2022/01/13 14:38:50;;;;;;;16.17;8.02;;;;;;;;;;5020955;28;20029;-79
2022/01/13 14:41:30;;;;;;;15.15;7.70;;;;;;;;;;5009642;28;20117;-79
2022/01/13 14:44:17;;;;;;;16.30;7.80;;;;;;;;;;4999956;28;20023;-78
2022/01/13 14:46:52;;;;;;;15.45;8.27;;;;;;;;;;5001263;28;20041;-78
2022/01/13 14:49:19;;;;;;;17.23;7.63;;;;;;;;;;5013334;28;20026;-78